sensor_id;sensor_type;location;lat;lon;timestamp;temperature;humidity
3736;DHT22;1883;48.202;16.310;2024-02-04T00:01:31;8.10;54.40
3736;DHT22;1883;48.202;16.310;2024-02-04T00:04:08;8.10;54.60
3736;DHT22;1883;48.202;16.310;2024-02-04T00:06:36;8.00;54.70
3736;DHT22;1883;48.202;16.310;2024-02-04T00:09:03;8.10;54.90
3736;DHT22;1883;48.202;16.310;2024-02-04T00:11:32;8.20;55.10
3736;DHT22;1883;48.202;16.310;2024-02-04T00:14:01;8.20;55.30
3736;DHT22;1883;48.202;16.310;2024-02-04T00:16:28;8.20;55.50
3736;DHT22;1883;48.202;16.310;2024-02-04T00:18:59;8.20;55.60
3736;DHT22;1883;48.202;16.310;2024-02-04T00:21:27;8.20;55.80
3736;DHT22;1883;48.202;16.310;2024-02-04T00:23:54;8.20;55.90
3736;DHT22;1883;48.202;16.310;2024-02-04T00:26:22;8.20;55.80
3736;DHT22;1883;48.202;16.310;2024-02-04T00:28:48;8.20;56.10
3736;DHT22;1883;48.202;16.310;2024-02-04T00:31:18;8.30;56.20
3736;DHT22;1883;48.202;16.310;2024-02-04T00:33:47;8.20;56.40
3736;DHT22;1883;48.202;16.310;2024-02-04T00:36:14;8.20;56.40
3736;DHT22;1883;48.202;16.310;2024-02-04T00:38:43;8.20;56.40
3736;DHT22;1883;48.202;16.310;2024-02-04T00:41:10;8.20;56.40
3736;DHT22;1883;48.202;16.310;2024-02-04T00:43:37;8.30;56.50
3736;DHT22;1883;48.202;16.310;2024-02-04T00:46:04;8.30;56.60
3736;DHT22;1883;48.202;16.310;2024-02-04T00:48:33;8.30;56.70
3736;DHT22;1883;48.202;16.310;2024-02-04T00:51:00;8.30;56.80
3736;DHT22;1883;48.202;16.310;2024-02-04T00:53:27;8.40;56.90
3736;DHT22;1883;48.202;16.310;2024-02-04T00:56:00;8.40;57.10
3736;DHT22;1883;48.202;16.310;2024-02-04T00:58:30;8.40;57.20
3736;DHT22;1883;48.202;16.310;2024-02-04T01:00:57;8.50;57.30
3736;DHT22;1883;48.202;16.310;2024-02-04T01:03:24;8.40;57.40
3736;DHT22;1883;48.202;16.310;2024-02-04T01:05:51;8.40;57.30
3736;DHT22;1883;48.202;16.310;2024-02-04T01:08:18;8.40;56.90
3736;DHT22;1883;48.202;16.310;2024-02-04T01:10:45;8.40;56.50
3736;DHT22;1883;48.202;16.310;2024-02-04T01:13:13;8.30;55.90
3736;DHT22;1883;48.202;16.310;2024-02-04T01:15:40;8.30;55.10
3736;DHT22;1883;48.202;16.310;2024-02-04T01:18:07;8.20;54.50
3736;DHT22;1883;48.202;16.310;2024-02-04T01:20:34;8.10;53.80
3736;DHT22;1883;48.202;16.310;2024-02-04T01:23:01;8.00;52.90
3736;DHT22;1883;48.202;16.310;2024-02-04T01:25:28;8.00;52.20
3736;DHT22;1883;48.202;16.310;2024-02-04T01:27:55;8.00;51.70
3736;DHT22;1883;48.202;16.310;2024-02-04T01:30:23;8.00;51.20
3736;DHT22;1883;48.202;16.310;2024-02-04T01:32:50;7.90;50.80
3736;DHT22;1883;48.202;16.310;2024-02-04T01:35:17;7.80;50.30
3736;DHT22;1883;48.202;16.310;2024-02-04T01:37:45;7.80;50.00
3736;DHT22;1883;48.202;16.310;2024-02-04T01:40:14;7.80;49.70
3736;DHT22;1883;48.202;16.310;2024-02-04T01:42:41;7.80;49.50
3736;DHT22;1883;48.202;16.310;2024-02-04T01:45:09;7.80;49.40
3736;DHT22;1883;48.202;16.310;2024-02-04T01:47:38;7.80;49.40
3736;DHT22;1883;48.202;16.310;2024-02-04T01:50:06;7.80;49.20
3736;DHT22;1883;48.202;16.310;2024-02-04T01:52:36;7.70;49.00
3736;DHT22;1883;48.202;16.310;2024-02-04T01:55:05;7.60;48.70
3736;DHT22;1883;48.202;16.310;2024-02-04T01:57:32;7.60;48.50
3736;DHT22;1883;48.202;16.310;2024-02-04T02:00:02;7.60;48.30
3736;DHT22;1883;48.202;16.310;2024-02-04T02:02:31;7.50;48.10
3736;DHT22;1883;48.202;16.310;2024-02-04T02:05:00;7.50;47.90
3736;DHT22;1883;48.202;16.310;2024-02-04T02:07:27;7.50;47.80
3736;DHT22;1883;48.202;16.310;2024-02-04T02:09:54;7.50;47.70
3736;DHT22;1883;48.202;16.310;2024-02-04T02:12:24;7.40;47.40
3736;DHT22;1883;48.202;16.310;2024-02-04T02:14:58;7.30;47.20
3736;DHT22;1883;48.202;16.310;2024-02-04T02:17:33;7.30;46.90
3736;DHT22;1883;48.202;16.310;2024-02-04T02:20:07;7.30;46.70
3736;DHT22;1883;48.202;16.310;2024-02-04T02:22:42;7.30;46.40
3736;DHT22;1883;48.202;16.310;2024-02-04T02:25:14;7.20;46.20
3736;DHT22;1883;48.202;16.310;2024-02-04T02:27:48;7.20;45.70
3736;DHT22;1883;48.202;16.310;2024-02-04T02:30:15;7.20;45.60
3736;DHT22;1883;48.202;16.310;2024-02-04T02:32:46;7.30;45.60
3736;DHT22;1883;48.202;16.310;2024-02-04T02:35:15;7.20;45.40
3736;DHT22;1883;48.202;16.310;2024-02-04T02:37:46;7.20;45.40
3736;DHT22;1883;48.202;16.310;2024-02-04T02:40:22;7.20;45.30
3736;DHT22;1883;48.202;16.310;2024-02-04T02:42:52;7.30;45.40
3736;DHT22;1883;48.202;16.310;2024-02-04T02:45:21;7.30;45.30
3736;DHT22;1883;48.202;16.310;2024-02-04T02:47:49;7.30;45.30
3736;DHT22;1883;48.202;16.310;2024-02-04T02:50:17;7.30;45.20
3736;DHT22;1883;48.202;16.310;2024-02-04T02:52:44;7.30;45.20
3736;DHT22;1883;48.202;16.310;2024-02-04T02:55:12;7.30;45.30
3736;DHT22;1883;48.202;16.310;2024-02-04T02:57:40;7.30;45.30
3736;DHT22;1883;48.202;16.310;2024-02-04T03:00:08;7.30;45.30
3736;DHT22;1883;48.202;16.310;2024-02-04T03:02:35;7.30;45.30
3736;DHT22;1883;48.202;16.310;2024-02-04T03:05:02;7.30;45.40
3736;DHT22;1883;48.202;16.310;2024-02-04T03:07:29;7.40;45.50
3736;DHT22;1883;48.202;16.310;2024-02-04T03:09:56;7.30;45.50
3736;DHT22;1883;48.202;16.310;2024-02-04T03:12:23;7.30;45.50
3736;DHT22;1883;48.202;16.310;2024-02-04T03:14:52;7.30;45.60
3736;DHT22;1883;48.202;16.310;2024-02-04T03:17:19;7.30;45.50
3736;DHT22;1883;48.202;16.310;2024-02-04T03:19:47;7.30;45.60
3736;DHT22;1883;48.202;16.310;2024-02-04T03:22:17;7.30;45.70
3736;DHT22;1883;48.202;16.310;2024-02-04T03:24:45;7.40;45.80
3736;DHT22;1883;48.202;16.310;2024-02-04T03:27:13;7.40;45.90
3736;DHT22;1883;48.202;16.310;2024-02-04T03:29:41;7.40;46.10
3736;DHT22;1883;48.202;16.310;2024-02-04T03:32:10;7.40;46.20
3736;DHT22;1883;48.202;16.310;2024-02-04T03:34:38;7.30;46.20
3736;DHT22;1883;48.202;16.310;2024-02-04T03:37:05;7.30;46.20
3736;DHT22;1883;48.202;16.310;2024-02-04T03:39:32;7.30;46.20
3736;DHT22;1883;48.202;16.310;2024-02-04T03:41:59;7.40;46.30
3736;DHT22;1883;48.202;16.310;2024-02-04T03:44:26;7.40;46.40
3736;DHT22;1883;48.202;16.310;2024-02-04T03:46:53;7.40;46.40
3736;DHT22;1883;48.202;16.310;2024-02-04T03:49:22;7.40;46.60
3736;DHT22;1883;48.202;16.310;2024-02-04T03:51:49;7.50;46.70
3736;DHT22;1883;48.202;16.310;2024-02-04T03:54:16;7.50;46.80
3736;DHT22;1883;48.202;16.310;2024-02-04T03:56:44;7.60;46.90
3736;DHT22;1883;48.202;16.310;2024-02-04T03:59:11;7.50;47.00
3736;DHT22;1883;48.202;16.310;2024-02-04T04:01:38;7.60;47.10
3736;DHT22;1883;48.202;16.310;2024-02-04T04:04:08;7.60;47.20
3736;DHT22;1883;48.202;16.310;2024-02-04T04:06:37;7.60;47.20
3736;DHT22;1883;48.202;16.310;2024-02-04T04:09:04;7.50;47.20
3736;DHT22;1883;48.202;16.310;2024-02-04T04:11:31;7.60;47.30
3736;DHT22;1883;48.202;16.310;2024-02-04T04:13:58;7.60;47.40
3736;DHT22;1883;48.202;16.310;2024-02-04T04:16:25;7.60;47.40
3736;DHT22;1883;48.202;16.310;2024-02-04T04:18:53;7.70;47.60
3736;DHT22;1883;48.202;16.310;2024-02-04T04:21:19;7.60;47.50
3736;DHT22;1883;48.202;16.310;2024-02-04T04:23:48;7.50;47.30
3736;DHT22;1883;48.202;16.310;2024-02-04T04:26:15;7.50;47.20
3736;DHT22;1883;48.202;16.310;2024-02-04T04:28:42;7.50;47.30
3736;DHT22;1883;48.202;16.310;2024-02-04T04:31:09;7.60;47.40
3736;DHT22;1883;48.202;16.310;2024-02-04T04:33:36;7.50;47.50
3736;DHT22;1883;48.202;16.310;2024-02-04T04:36:03;7.50;47.50
3736;DHT22;1883;48.202;16.310;2024-02-04T04:38:30;7.50;47.50
3736;DHT22;1883;48.202;16.310;2024-02-04T04:40:58;7.50;47.60
3736;DHT22;1883;48.202;16.310;2024-02-04T04:43:25;7.50;47.60
3736;DHT22;1883;48.202;16.310;2024-02-04T04:45:52;7.50;47.70
3736;DHT22;1883;48.202;16.310;2024-02-04T04:48:19;7.60;47.90
3736;DHT22;1883;48.202;16.310;2024-02-04T04:50:46;7.60;47.90
3736;DHT22;1883;48.202;16.310;2024-02-04T04:53:13;7.60;48.10
3736;DHT22;1883;48.202;16.310;2024-02-04T04:55:40;7.70;48.20
3736;DHT22;1883;48.202;16.310;2024-02-04T04:58:08;7.60;48.30
3736;DHT22;1883;48.202;16.310;2024-02-04T05:00:36;7.60;48.30
3736;DHT22;1883;48.202;16.310;2024-02-04T05:03:04;7.70;48.50
3736;DHT22;1883;48.202;16.310;2024-02-04T05:05:31;7.70;48.70
3736;DHT22;1883;48.202;16.310;2024-02-04T05:07:58;7.60;48.70
3736;DHT22;1883;48.202;16.310;2024-02-04T05:10:25;7.70;48.80
3736;DHT22;1883;48.202;16.310;2024-02-04T05:12:52;7.60;48.70
3736;DHT22;1883;48.202;16.310;2024-02-04T05:15:20;7.60;48.80
3736;DHT22;1883;48.202;16.310;2024-02-04T05:17:47;7.70;48.90
3736;DHT22;1883;48.202;16.310;2024-02-04T05:20:14;7.80;49.00
3736;DHT22;1883;48.202;16.310;2024-02-04T05:22:41;7.80;49.10
3736;DHT22;1883;48.202;16.310;2024-02-04T05:25:09;7.90;49.30
3736;DHT22;1883;48.202;16.310;2024-02-04T05:27:36;7.90;49.30
3736;DHT22;1883;48.202;16.310;2024-02-04T05:30:03;7.90;49.40
3736;DHT22;1883;48.202;16.310;2024-02-04T05:32:32;7.80;49.50
3736;DHT22;1883;48.202;16.310;2024-02-04T05:34:59;7.80;49.50
3736;DHT22;1883;48.202;16.310;2024-02-04T05:37:26;7.80;49.60
3736;DHT22;1883;48.202;16.310;2024-02-04T05:39:53;7.80;49.50
3736;DHT22;1883;48.202;16.310;2024-02-04T05:42:20;7.70;49.40
3736;DHT22;1883;48.202;16.310;2024-02-04T05:44:47;7.70;49.40
3736;DHT22;1883;48.202;16.310;2024-02-04T05:47:14;7.70;49.40
3736;DHT22;1883;48.202;16.310;2024-02-04T05:49:42;7.70;49.40
3736;DHT22;1883;48.202;16.310;2024-02-04T05:52:11;7.70;49.40
3736;DHT22;1883;48.202;16.310;2024-02-04T05:54:38;7.70;49.30
3736;DHT22;1883;48.202;16.310;2024-02-04T05:57:07;7.70;49.40
3736;DHT22;1883;48.202;16.310;2024-02-04T05:59:34;7.70;49.40
3736;DHT22;1883;48.202;16.310;2024-02-04T06:02:01;7.70;49.40
3736;DHT22;1883;48.202;16.310;2024-02-04T06:04:28;7.70;49.50
3736;DHT22;1883;48.202;16.310;2024-02-04T06:06:57;7.70;49.50
3736;DHT22;1883;48.202;16.310;2024-02-04T06:09:24;7.70;49.60
3736;DHT22;1883;48.202;16.310;2024-02-04T06:11:51;7.70;49.60
3736;DHT22;1883;48.202;16.310;2024-02-04T06:14:17;7.70;49.70
3736;DHT22;1883;48.202;16.310;2024-02-04T06:16:44;7.70;49.70
3736;DHT22;1883;48.202;16.310;2024-02-04T06:19:12;7.70;49.60
3736;DHT22;1883;48.202;16.310;2024-02-04T06:21:40;7.70;49.60
3736;DHT22;1883;48.202;16.310;2024-02-04T06:24:09;7.70;49.70
3736;DHT22;1883;48.202;16.310;2024-02-04T06:26:37;7.70;49.70
3736;DHT22;1883;48.202;16.310;2024-02-04T06:29:05;7.70;49.70
3736;DHT22;1883;48.202;16.310;2024-02-04T06:31:32;7.70;49.80
3736;DHT22;1883;48.202;16.310;2024-02-04T06:33:58;7.70;49.90
3736;DHT22;1883;48.202;16.310;2024-02-04T06:36:26;7.70;49.90
3736;DHT22;1883;48.202;16.310;2024-02-04T06:38:53;7.70;49.90
3736;DHT22;1883;48.202;16.310;2024-02-04T06:41:22;7.70;50.00
3736;DHT22;1883;48.202;16.310;2024-02-04T06:43:49;7.70;50.10
3736;DHT22;1883;48.202;16.310;2024-02-04T06:46:24;7.70;50.20
3736;DHT22;1883;48.202;16.310;2024-02-04T06:48:51;7.80;50.20
3736;DHT22;1883;48.202;16.310;2024-02-04T06:51:18;7.80;50.30
3736;DHT22;1883;48.202;16.310;2024-02-04T06:53:45;7.80;50.40
3736;DHT22;1883;48.202;16.310;2024-02-04T06:56:14;7.80;50.40
3736;DHT22;1883;48.202;16.310;2024-02-04T06:58:42;7.80;50.40
3736;DHT22;1883;48.202;16.310;2024-02-04T07:01:11;7.90;50.50
3736;DHT22;1883;48.202;16.310;2024-02-04T07:03:38;7.90;50.60
3736;DHT22;1883;48.202;16.310;2024-02-04T07:06:05;7.90;50.70
3736;DHT22;1883;48.202;16.310;2024-02-04T07:08:32;7.90;50.80
3736;DHT22;1883;48.202;16.310;2024-02-04T07:10:59;8.00;50.90
3736;DHT22;1883;48.202;16.310;2024-02-04T07:13:27;8.00;51.00
3736;DHT22;1883;48.202;16.310;2024-02-04T07:15:56;8.00;51.10
3736;DHT22;1883;48.202;16.310;2024-02-04T07:18:23;8.10;51.30
3736;DHT22;1883;48.202;16.310;2024-02-04T07:20:50;8.20;51.40
3736;DHT22;1883;48.202;16.310;2024-02-04T07:23:17;8.20;51.70
3736;DHT22;1883;48.202;16.310;2024-02-04T07:25:44;8.20;51.80
3736;DHT22;1883;48.202;16.310;2024-02-04T07:28:11;8.30;52.00
3736;DHT22;1883;48.202;16.310;2024-02-04T07:30:38;8.30;52.10
3736;DHT22;1883;48.202;16.310;2024-02-04T07:33:07;8.30;52.20
3736;DHT22;1883;48.202;16.310;2024-02-04T07:35:34;8.40;52.40
3736;DHT22;1883;48.202;16.310;2024-02-04T07:38:01;8.40;52.50
3736;DHT22;1883;48.202;16.310;2024-02-04T07:40:28;8.40;52.60
3736;DHT22;1883;48.202;16.310;2024-02-04T07:42:55;8.40;52.70
3736;DHT22;1883;48.202;16.310;2024-02-04T07:45:23;8.40;52.80
3736;DHT22;1883;48.202;16.310;2024-02-04T07:47:50;8.50;52.90
3736;DHT22;1883;48.202;16.310;2024-02-04T07:50:18;8.50;53.20
3736;DHT22;1883;48.202;16.310;2024-02-04T07:52:45;8.60;53.40
3736;DHT22;1883;48.202;16.310;2024-02-04T07:55:12;8.60;53.50
3736;DHT22;1883;48.202;16.310;2024-02-04T07:57:40;8.60;53.60
3736;DHT22;1883;48.202;16.310;2024-02-04T08:00:07;8.60;53.50
3736;DHT22;1883;48.202;16.310;2024-02-04T08:02:36;8.60;53.80
3736;DHT22;1883;48.202;16.310;2024-02-04T08:05:07;8.50;53.90
3736;DHT22;1883;48.202;16.310;2024-02-04T08:07:35;8.50;53.80
3736;DHT22;1883;48.202;16.310;2024-02-04T08:10:02;8.50;54.00
3736;DHT22;1883;48.202;16.310;2024-02-04T08:12:33;8.60;54.20
3736;DHT22;1883;48.202;16.310;2024-02-04T08:15:00;8.70;54.60
3736;DHT22;1883;48.202;16.310;2024-02-04T08:17:27;8.70;54.90
3736;DHT22;1883;48.202;16.310;2024-02-04T08:19:56;8.70;55.10
3736;DHT22;1883;48.202;16.310;2024-02-04T08:22:23;8.70;55.10
3736;DHT22;1883;48.202;16.310;2024-02-04T08:24:52;8.80;55.10
3736;DHT22;1883;48.202;16.310;2024-02-04T08:27:23;8.80;55.30
3736;DHT22;1883;48.202;16.310;2024-02-04T08:29:51;8.80;55.50
3736;DHT22;1883;48.202;16.310;2024-02-04T08:32:19;8.80;55.70
3736;DHT22;1883;48.202;16.310;2024-02-04T08:34:47;8.80;55.80
3736;DHT22;1883;48.202;16.310;2024-02-04T08:37:19;8.80;55.80
3736;DHT22;1883;48.202;16.310;2024-02-04T08:39:48;8.90;56.00
3736;DHT22;1883;48.202;16.310;2024-02-04T08:42:18;8.90;56.20
3736;DHT22;1883;48.202;16.310;2024-02-04T08:44:45;8.90;56.30
3736;DHT22;1883;48.202;16.310;2024-02-04T08:47:12;8.90;56.60
3736;DHT22;1883;48.202;16.310;2024-02-04T08:49:41;8.90;56.80
3736;DHT22;1883;48.202;16.310;2024-02-04T08:52:08;9.00;57.20
3736;DHT22;1883;48.202;16.310;2024-02-04T08:54:35;9.00;57.10
3736;DHT22;1883;48.202;16.310;2024-02-04T08:57:03;9.00;57.20
3736;DHT22;1883;48.202;16.310;2024-02-04T08:59:32;9.00;57.20
3736;DHT22;1883;48.202;16.310;2024-02-04T09:01:59;9.10;57.40
3736;DHT22;1883;48.202;16.310;2024-02-04T09:04:27;9.10;57.80
3736;DHT22;1883;48.202;16.310;2024-02-04T09:06:59;9.10;57.80
3736;DHT22;1883;48.202;16.310;2024-02-04T09:09:26;9.20;58.10
3736;DHT22;1883;48.202;16.310;2024-02-04T09:11:55;9.20;58.30
3736;DHT22;1883;48.202;16.310;2024-02-04T09:14:24;9.20;58.30
3736;DHT22;1883;48.202;16.310;2024-02-04T09:22:49;9.40;58.90
3736;DHT22;1883;48.202;16.310;2024-02-04T09:25:20;9.40;59.10
3736;DHT22;1883;48.202;16.310;2024-02-04T09:27:54;9.50;59.30
3736;DHT22;1883;48.202;16.310;2024-02-04T09:30:27;9.40;59.30
3736;DHT22;1883;48.202;16.310;2024-02-04T09:32:57;9.40;59.50
3736;DHT22;1883;48.202;16.310;2024-02-04T09:35:39;9.40;59.60
3736;DHT22;1883;48.202;16.310;2024-02-04T09:38:23;9.40;59.70
3736;DHT22;1883;48.202;16.310;2024-02-04T09:41:00;9.40;59.50
3736;DHT22;1883;48.202;16.310;2024-02-04T09:43:31;9.50;59.70
3736;DHT22;1883;48.202;16.310;2024-02-04T09:46:00;9.50;59.60
3736;DHT22;1883;48.202;16.310;2024-02-04T09:49:05;9.50;59.80
3736;DHT22;1883;48.202;16.310;2024-02-04T09:51:39;9.60;59.90
3736;DHT22;1883;48.202;16.310;2024-02-04T09:54:11;9.60;59.90
3736;DHT22;1883;48.202;16.310;2024-02-04T09:56:42;9.60;59.90
3736;DHT22;1883;48.202;16.310;2024-02-04T09:59:12;9.60;59.90
3736;DHT22;1883;48.202;16.310;2024-02-04T10:01:56;9.70;60.10
3736;DHT22;1883;48.202;16.310;2024-02-04T10:04:29;9.70;60.10
3736;DHT22;1883;48.202;16.310;2024-02-04T10:06:58;9.70;60.10
3736;DHT22;1883;48.202;16.310;2024-02-04T10:09:47;9.70;60.20
3736;DHT22;1883;48.202;16.310;2024-02-04T10:12:19;9.80;60.40
3736;DHT22;1883;48.202;16.310;2024-02-04T10:15:02;9.70;60.30
3736;DHT22;1883;48.202;16.310;2024-02-04T10:17:59;9.70;60.10
3736;DHT22;1883;48.202;16.310;2024-02-04T10:20:33;9.80;60.40
3736;DHT22;1883;48.202;16.310;2024-02-04T10:23:40;9.90;60.40
3736;DHT22;1883;48.202;16.310;2024-02-04T10:26:59;9.90;60.60
3736;DHT22;1883;48.202;16.310;2024-02-04T10:29:40;10.00;60.70
3736;DHT22;1883;48.202;16.310;2024-02-04T10:32:24;10.10;60.90
3736;DHT22;1883;48.202;16.310;2024-02-04T10:35:09;10.20;61.20
3736;DHT22;1883;48.202;16.310;2024-02-04T10:37:39;10.20;61.10
3736;DHT22;1883;48.202;16.310;2024-02-04T10:40:11;10.20;61.30
3736;DHT22;1883;48.202;16.310;2024-02-04T11:05:49;10.10;61.50
3736;DHT22;1883;48.202;16.310;2024-02-04T11:08:17;10.00;61.50
3736;DHT22;1883;48.202;16.310;2024-02-04T11:10:46;10.00;61.40
3736;DHT22;1883;48.202;16.310;2024-02-04T11:13:29;10.10;61.50
3736;DHT22;1883;48.202;16.310;2024-02-04T11:16:14;10.10;61.60
3736;DHT22;1883;48.202;16.310;2024-02-04T11:19:31;10.20;61.80
3736;DHT22;1883;48.202;16.310;2024-02-04T11:28:48;10.10;61.70
3736;DHT22;1883;48.202;16.310;2024-02-04T11:31:32;10.10;61.60
3736;DHT22;1883;48.202;16.310;2024-02-04T11:34:36;10.10;61.70
3736;DHT22;1883;48.202;16.310;2024-02-04T11:37:34;10.00;61.60
3736;DHT22;1883;48.202;16.310;2024-02-04T11:55:02;9.80;60.90
3736;DHT22;1883;48.202;16.310;2024-02-04T11:57:47;9.80;60.90
3736;DHT22;1883;48.202;16.310;2024-02-04T12:00:33;9.80;60.80
3736;DHT22;1883;48.202;16.310;2024-02-04T12:03:17;9.70;60.80
3736;DHT22;1883;48.202;16.310;2024-02-04T12:06:12;9.80;60.80
3736;DHT22;1883;48.202;16.310;2024-02-04T12:08:55;9.90;60.80
3736;DHT22;1883;48.202;16.310;2024-02-04T20:53:05;9.90;54.30
3736;DHT22;1883;48.202;16.310;2024-02-04T20:55:43;9.80;53.40
3736;DHT22;1883;48.202;16.310;2024-02-04T21:02:14;9.70;53.00
3736;DHT22;1883;48.202;16.310;2024-02-04T21:04:57;9.70;52.60
3736;DHT22;1883;48.202;16.310;2024-02-04T21:21:55;9.40;49.50
3736;DHT22;1883;48.202;16.310;2024-02-04T21:24:26;9.30;48.90
3736;DHT22;1883;48.202;16.310;2024-02-04T21:27:07;9.30;48.80
3736;DHT22;1883;48.202;16.310;2024-02-04T21:29:38;9.30;48.50
3736;DHT22;1883;48.202;16.310;2024-02-04T21:32:19;9.30;48.40
3736;DHT22;1883;48.202;16.310;2024-02-04T21:34:53;9.40;48.50
3736;DHT22;1883;48.202;16.310;2024-02-04T21:37:27;9.40;48.60
3736;DHT22;1883;48.202;16.310;2024-02-04T21:39:59;9.50;48.80
3736;DHT22;1883;48.202;16.310;2024-02-04T21:42:48;9.50;48.80
3736;DHT22;1883;48.202;16.310;2024-02-04T21:45:20;9.50;49.10
3736;DHT22;1883;48.202;16.310;2024-02-04T21:47:52;9.60;48.90
3736;DHT22;1883;48.202;16.310;2024-02-04T21:50:19;9.60;49.20
3736;DHT22;1883;48.202;16.310;2024-02-04T21:52:57;9.60;49.30
3736;DHT22;1883;48.202;16.310;2024-02-04T21:55:27;9.80;49.30
3736;DHT22;1883;48.202;16.310;2024-02-04T21:58:03;9.90;50.10
3736;DHT22;1883;48.202;16.310;2024-02-04T22:00:35;10.00;49.90
3736;DHT22;1883;48.202;16.310;2024-02-04T22:03:03;9.90;50.10
3736;DHT22;1883;48.202;16.310;2024-02-04T22:05:33;9.60;49.00
3736;DHT22;1883;48.202;16.310;2024-02-04T22:08:28;9.50;48.10
3736;DHT22;1883;48.202;16.310;2024-02-04T22:10:55;9.40;47.90
3736;DHT22;1883;48.202;16.310;2024-02-04T22:13:25;9.40;47.10
3736;DHT22;1883;48.202;16.310;2024-02-04T22:15:53;9.40;46.60
3736;DHT22;1883;48.202;16.310;2024-02-04T22:18:22;9.40;45.80
3736;DHT22;1883;48.202;16.310;2024-02-04T22:21:17;9.30;43.40
3736;DHT22;1883;48.202;16.310;2024-02-04T22:23:46;9.30;43.20
3736;DHT22;1883;48.202;16.310;2024-02-04T22:26:14;9.30;42.30
3736;DHT22;1883;48.202;16.310;2024-02-04T22:28:43;9.20;41.50
3736;DHT22;1883;48.202;16.310;2024-02-04T22:31:16;9.20;41.40
3736;DHT22;1883;48.202;16.310;2024-02-04T22:33:44;9.20;40.90
3736;DHT22;1883;48.202;16.310;2024-02-04T22:36:21;9.10;40.20
3736;DHT22;1883;48.202;16.310;2024-02-04T22:39:14;9.20;40.40
3736;DHT22;1883;48.202;16.310;2024-02-04T22:41:46;9.30;41.70
3736;DHT22;1883;48.202;16.310;2024-02-04T22:44:13;9.30;41.60
3736;DHT22;1883;48.202;16.310;2024-02-04T22:46:55;9.40;41.90
3736;DHT22;1883;48.202;16.310;2024-02-04T22:49:22;9.40;42.70
3736;DHT22;1883;48.202;16.310;2024-02-04T22:51:50;9.40;42.30
3736;DHT22;1883;48.202;16.310;2024-02-04T22:54:19;9.40;42.20
3736;DHT22;1883;48.202;16.310;2024-02-04T22:56:47;9.30;41.60
3736;DHT22;1883;48.202;16.310;2024-02-04T22:59:27;9.20;40.60
3736;DHT22;1883;48.202;16.310;2024-02-04T23:01:56;9.20;40.20
3736;DHT22;1883;48.202;16.310;2024-02-04T23:04:25;9.10;39.20
3736;DHT22;1883;48.202;16.310;2024-02-04T23:06:53;9.10;38.70
3736;DHT22;1883;48.202;16.310;2024-02-04T23:09:20;9.20;38.80
3736;DHT22;1883;48.202;16.310;2024-02-04T23:11:48;9.20;38.80
3736;DHT22;1883;48.202;16.310;2024-02-04T23:14:17;9.20;39.00
3736;DHT22;1883;48.202;16.310;2024-02-04T23:16:45;9.30;39.80
3736;DHT22;1883;48.202;16.310;2024-02-04T23:19:12;9.30;39.50
3736;DHT22;1883;48.202;16.310;2024-02-04T23:21:40;9.30;40.40
3736;DHT22;1883;48.202;16.310;2024-02-04T23:24:07;9.40;41.10
3736;DHT22;1883;48.202;16.310;2024-02-04T23:26:36;9.40;41.00
3736;DHT22;1883;48.202;16.310;2024-02-04T23:29:03;9.30;40.50
3736;DHT22;1883;48.202;16.310;2024-02-04T23:31:32;9.30;40.20
3736;DHT22;1883;48.202;16.310;2024-02-04T23:33:59;9.40;40.10
3736;DHT22;1883;48.202;16.310;2024-02-04T23:36:27;9.50;40.40
3736;DHT22;1883;48.202;16.310;2024-02-04T23:38:55;9.40;40.50
3736;DHT22;1883;48.202;16.310;2024-02-04T23:41:22;9.50;40.60
3736;DHT22;1883;48.202;16.310;2024-02-04T23:43:51;9.60;40.10
3736;DHT22;1883;48.202;16.310;2024-02-04T23:46:20;9.60;40.80
3736;DHT22;1883;48.202;16.310;2024-02-04T23:48:47;9.70;40.60
3736;DHT22;1883;48.202;16.310;2024-02-04T23:51:15;9.70;40.40
3736;DHT22;1883;48.202;16.310;2024-02-04T23:53:42;9.80;41.00
3736;DHT22;1883;48.202;16.310;2024-02-04T23:56:09;9.90;40.30
3736;DHT22;1883;48.202;16.310;2024-02-04T23:58:36;9.90;40.80
